sensor_id;sensor_type;location;lat;lon;timestamp;P1;durP1;ratioP1;P2;durP2;ratioP2
38879;SDS011;25887;30.194;-97.880;2024-01-27T00:00:08;18.10;;;6.25;;
38879;SDS011;25887;30.194;-97.880;2024-01-27T00:02:35;18.77;;;6.30;;
38879;SDS011;25887;30.194;-97.880;2024-01-27T00:05:02;21.25;;;7.13;;
38879;SDS011;25887;30.194;-97.880;2024-01-27T00:07:29;17.10;;;7.10;;
38879;SDS011;25887;30.194;-97.880;2024-01-27T00:09:55;17.02;;;6.43;;
38879;SDS011;25887;30.194;-97.880;2024-01-27T00:12:24;22.13;;;7.05;;
38879;SDS011;25887;30.194;-97.880;2024-01-27T00:14:56;15.48;;;6.32;;
38879;SDS011;25887;30.194;-97.880;2024-01-27T00:17:37;15.15;;;6.05;;
38879;SDS011;25887;30.194;-97.880;2024-01-27T00:20:05;19.58;;;6.50;;
38879;SDS011;25887;30.194;-97.880;2024-01-27T00:22:32;20.05;;;7.30;;
38879;SDS011;25887;30.194;-97.880;2024-01-27T00:24:58;22.52;;;6.18;;
38879;SDS011;25887;30.194;-97.880;2024-01-27T00:27:24;24.45;;;7.18;;
38879;SDS011;25887;30.194;-97.880;2024-01-27T00:29:51;19.30;;;6.93;;
38879;SDS011;25887;30.194;-97.880;2024-01-27T00:32:21;20.85;;;8.23;;
38879;SDS011;25887;30.194;-97.880;2024-01-27T00:34:52;18.55;;;7.35;;
38879;SDS011;25887;30.194;-97.880;2024-01-27T00:37:19;15.93;;;6.78;;
38879;SDS011;25887;30.194;-97.880;2024-01-27T00:39:54;19.17;;;7.32;;
38879;SDS011;25887;30.194;-97.880;2024-01-27T00:42:20;18.85;;;7.40;;
38879;SDS011;25887;30.194;-97.880;2024-01-27T00:44:49;21.25;;;8.23;;
38879;SDS011;25887;30.194;-97.880;2024-01-27T00:47:19;19.05;;;7.38;;
38879;SDS011;25887;30.194;-97.880;2024-01-27T00:49:46;20.60;;;8.15;;
38879;SDS011;25887;30.194;-97.880;2024-01-27T00:52:13;28.75;;;8.73;;
38879;SDS011;25887;30.194;-97.880;2024-01-27T00:57:22;18.25;;;7.55;;
38879;SDS011;25887;30.194;-97.880;2024-01-27T00:59:49;22.50;;;8.00;;
38879;SDS011;25887;30.194;-97.880;2024-01-27T01:02:18;21.52;;;7.47;;
38879;SDS011;25887;30.194;-97.880;2024-01-27T01:04:44;28.85;;;7.88;;
38879;SDS011;25887;30.194;-97.880;2024-01-27T01:07:13;21.77;;;7.90;;
38879;SDS011;25887;30.194;-97.880;2024-01-27T01:09:45;24.67;;;8.30;;
38879;SDS011;25887;30.194;-97.880;2024-01-27T01:12:12;20.40;;;7.28;;
38879;SDS011;25887;30.194;-97.880;2024-01-27T01:14:40;22.33;;;8.15;;
38879;SDS011;25887;30.194;-97.880;2024-01-27T01:17:08;23.08;;;8.00;;
38879;SDS011;25887;30.194;-97.880;2024-01-27T01:19:36;22.50;;;8.15;;
38879;SDS011;25887;30.194;-97.880;2024-01-27T01:22:05;23.60;;;7.72;;
38879;SDS011;25887;30.194;-97.880;2024-01-27T01:24:32;23.67;;;8.38;;
38879;SDS011;25887;30.194;-97.880;2024-01-27T01:26:58;24.10;;;8.82;;
38879;SDS011;25887;30.194;-97.880;2024-01-27T01:29:25;24.45;;;8.05;;
38879;SDS011;25887;30.194;-97.880;2024-01-27T01:31:52;35.30;;;9.88;;
38879;SDS011;25887;30.194;-97.880;2024-01-27T01:34:21;27.92;;;8.48;;
38879;SDS011;25887;30.194;-97.880;2024-01-27T01:36:47;35.33;;;8.80;;
38879;SDS011;25887;30.194;-97.880;2024-01-27T01:39:14;25.25;;;8.25;;
38879;SDS011;25887;30.194;-97.880;2024-01-27T01:41:40;30.60;;;8.60;;
38879;SDS011;25887;30.194;-97.880;2024-01-27T01:44:07;30.90;;;9.45;;
38879;SDS011;25887;30.194;-97.880;2024-01-27T01:46:33;33.47;;;9.77;;
38879;SDS011;25887;30.194;-97.880;2024-01-27T01:49:00;38.30;;;10.27;;
38879;SDS011;25887;30.194;-97.880;2024-01-27T01:51:27;34.95;;;9.13;;
38879;SDS011;25887;30.194;-97.880;2024-01-27T01:53:54;34.97;;;10.07;;
38879;SDS011;25887;30.194;-97.880;2024-01-27T01:56:24;38.67;;;9.88;;
38879;SDS011;25887;30.194;-97.880;2024-01-27T01:58:50;34.15;;;9.88;;
38879;SDS011;25887;30.194;-97.880;2024-01-27T02:01:19;42.20;;;10.00;;
38879;SDS011;25887;30.194;-97.880;2024-01-27T02:03:56;42.08;;;9.93;;
38879;SDS011;25887;30.194;-97.880;2024-01-27T02:06:23;41.58;;;11.07;;
38879;SDS011;25887;30.194;-97.880;2024-01-27T02:08:49;39.75;;;10.57;;
38879;SDS011;25887;30.194;-97.880;2024-01-27T02:11:17;42.30;;;11.13;;
38879;SDS011;25887;30.194;-97.880;2024-01-27T02:13:47;40.42;;;10.90;;
38879;SDS011;25887;30.194;-97.880;2024-01-27T02:16:14;43.13;;;11.13;;
38879;SDS011;25887;30.194;-97.880;2024-01-27T02:18:43;34.50;;;10.40;;
38879;SDS011;25887;30.194;-97.880;2024-01-27T02:21:12;45.55;;;11.98;;
38879;SDS011;25887;30.194;-97.880;2024-01-27T02:23:40;40.53;;;11.18;;
38879;SDS011;25887;30.194;-97.880;2024-01-27T02:26:06;31.13;;;9.70;;
38879;SDS011;25887;30.194;-97.880;2024-01-27T02:28:33;45.67;;;11.18;;
38879;SDS011;25887;30.194;-97.880;2024-01-27T02:31:00;35.90;;;9.93;;
38879;SDS011;25887;30.194;-97.880;2024-01-27T02:33:27;46.28;;;11.73;;
38879;SDS011;25887;30.194;-97.880;2024-01-27T02:35:56;47.53;;;11.65;;
38879;SDS011;25887;30.194;-97.880;2024-01-27T02:38:23;41.85;;;11.57;;
38879;SDS011;25887;30.194;-97.880;2024-01-27T02:40:49;46.97;;;10.90;;
38879;SDS011;25887;30.194;-97.880;2024-01-27T02:43:15;42.75;;;10.10;;
38879;SDS011;25887;30.194;-97.880;2024-01-27T02:45:44;45.00;;;10.48;;
38879;SDS011;25887;30.194;-97.880;2024-01-27T02:48:11;43.03;;;11.13;;
38879;SDS011;25887;30.194;-97.880;2024-01-27T02:50:39;37.15;;;9.88;;
38879;SDS011;25887;30.194;-97.880;2024-01-27T02:53:05;42.80;;;9.73;;
38879;SDS011;25887;30.194;-97.880;2024-01-27T02:55:31;52.95;;;12.63;;
38879;SDS011;25887;30.194;-97.880;2024-01-27T02:57:58;42.38;;;11.05;;
38879;SDS011;25887;30.194;-97.880;2024-01-27T03:00:24;44.60;;;12.38;;
38879;SDS011;25887;30.194;-97.880;2024-01-27T03:02:50;35.10;;;9.70;;
38879;SDS011;25887;30.194;-97.880;2024-01-27T03:05:19;40.33;;;10.60;;
38879;SDS011;25887;30.194;-97.880;2024-01-27T03:07:45;33.17;;;10.32;;
38879;SDS011;25887;30.194;-97.880;2024-01-27T03:10:11;37.20;;;9.68;;
38879;SDS011;25887;30.194;-97.880;2024-01-27T03:12:41;37.42;;;10.13;;
38879;SDS011;25887;30.194;-97.880;2024-01-27T03:15:07;45.83;;;11.55;;
38879;SDS011;25887;30.194;-97.880;2024-01-27T03:17:33;29.90;;;9.05;;
38879;SDS011;25887;30.194;-97.880;2024-01-27T03:20:00;47.15;;;11.57;;
38879;SDS011;25887;30.194;-97.880;2024-01-27T03:22:26;40.85;;;11.00;;
38879;SDS011;25887;30.194;-97.880;2024-01-27T03:24:52;35.60;;;9.20;;
38879;SDS011;25887;30.194;-97.880;2024-01-27T03:27:20;33.72;;;9.63;;
38879;SDS011;25887;30.194;-97.880;2024-01-27T03:29:46;32.15;;;9.05;;
38879;SDS011;25887;30.194;-97.880;2024-01-27T03:32:13;33.40;;;10.63;;
38879;SDS011;25887;30.194;-97.880;2024-01-27T03:34:45;33.83;;;9.90;;
38879;SDS011;25887;30.194;-97.880;2024-01-27T03:37:11;34.42;;;9.75;;
38879;SDS011;25887;30.194;-97.880;2024-01-27T03:39:40;39.67;;;10.05;;
38879;SDS011;25887;30.194;-97.880;2024-01-27T03:42:08;28.48;;;9.13;;
38879;SDS011;25887;30.194;-97.880;2024-01-27T03:44:34;37.25;;;10.40;;
38879;SDS011;25887;30.194;-97.880;2024-01-27T03:47:01;27.95;;;8.88;;
38879;SDS011;25887;30.194;-97.880;2024-01-27T03:49:27;33.45;;;9.32;;
38879;SDS011;25887;30.194;-97.880;2024-01-27T03:51:53;36.08;;;9.75;;
38879;SDS011;25887;30.194;-97.880;2024-01-27T03:54:19;31.10;;;8.98;;
38879;SDS011;25887;30.194;-97.880;2024-01-27T03:56:46;28.48;;;9.10;;
38879;SDS011;25887;30.194;-97.880;2024-01-27T03:59:12;32.03;;;8.77;;
38879;SDS011;25887;30.194;-97.880;2024-01-27T04:01:41;22.85;;;8.43;;
38879;SDS011;25887;30.194;-97.880;2024-01-27T04:04:08;31.52;;;9.30;;
38879;SDS011;25887;30.194;-97.880;2024-01-27T04:06:37;29.10;;;9.02;;
38879;SDS011;25887;30.194;-97.880;2024-01-27T04:09:08;25.98;;;7.07;;
38879;SDS011;25887;30.194;-97.880;2024-01-27T04:11:35;34.78;;;9.05;;
38879;SDS011;25887;30.194;-97.880;2024-01-27T04:14:03;29.13;;;8.68;;
38879;SDS011;25887;30.194;-97.880;2024-01-27T04:16:29;29.75;;;7.45;;
38879;SDS011;25887;30.194;-97.880;2024-01-27T04:18:56;30.85;;;7.95;;
38879;SDS011;25887;30.194;-97.880;2024-01-27T04:21:22;26.48;;;7.95;;
38879;SDS011;25887;30.194;-97.880;2024-01-27T04:23:49;28.63;;;8.98;;
38879;SDS011;25887;30.194;-97.880;2024-01-27T04:26:15;20.08;;;7.00;;
38879;SDS011;25887;30.194;-97.880;2024-01-27T04:28:41;25.73;;;8.75;;
38879;SDS011;25887;30.194;-97.880;2024-01-27T04:31:11;29.58;;;7.55;;
38879;SDS011;25887;30.194;-97.880;2024-01-27T04:33:37;23.75;;;7.38;;
38879;SDS011;25887;30.194;-97.880;2024-01-27T04:36:03;22.35;;;6.72;;
38879;SDS011;25887;30.194;-97.880;2024-01-27T04:38:32;19.77;;;7.05;;
38879;SDS011;25887;30.194;-97.880;2024-01-27T04:40:59;18.10;;;6.80;;
38879;SDS011;25887;30.194;-97.880;2024-01-27T04:43:25;18.75;;;6.50;;
38879;SDS011;25887;30.194;-97.880;2024-01-27T04:45:51;23.92;;;7.32;;
38879;SDS011;25887;30.194;-97.880;2024-01-27T04:48:17;14.57;;;6.57;;
38879;SDS011;25887;30.194;-97.880;2024-01-27T04:50:43;16.55;;;6.45;;
38879;SDS011;25887;30.194;-97.880;2024-01-27T04:53:10;17.25;;;5.75;;
38879;SDS011;25887;30.194;-97.880;2024-01-27T04:55:36;13.07;;;5.63;;
38879;SDS011;25887;30.194;-97.880;2024-01-27T04:58:03;14.13;;;5.03;;
38879;SDS011;25887;30.194;-97.880;2024-01-27T05:00:30;10.82;;;4.80;;
38879;SDS011;25887;30.194;-97.880;2024-01-27T05:02:56;13.48;;;4.68;;
38879;SDS011;25887;30.194;-97.880;2024-01-27T05:05:25;11.68;;;4.53;;
38879;SDS011;25887;30.194;-97.880;2024-01-27T05:07:51;15.15;;;4.78;;
38879;SDS011;25887;30.194;-97.880;2024-01-27T05:10:17;17.20;;;4.28;;
38879;SDS011;25887;30.194;-97.880;2024-01-27T05:12:44;14.25;;;4.82;;
38879;SDS011;25887;30.194;-97.880;2024-01-27T05:15:10;11.57;;;3.78;;
38879;SDS011;25887;30.194;-97.880;2024-01-27T05:17:37;8.98;;;4.45;;
38879;SDS011;25887;30.194;-97.880;2024-01-27T05:20:03;7.60;;;3.70;;
38879;SDS011;25887;30.194;-97.880;2024-01-27T05:22:30;8.77;;;4.13;;
38879;SDS011;25887;30.194;-97.880;2024-01-27T05:24:56;11.05;;;4.40;;
38879;SDS011;25887;30.194;-97.880;2024-01-27T05:27:23;9.75;;;3.97;;
38879;SDS011;25887;30.194;-97.880;2024-01-27T05:29:49;9.50;;;4.20;;
38879;SDS011;25887;30.194;-97.880;2024-01-27T05:32:18;7.40;;;3.63;;
38879;SDS011;25887;30.194;-97.880;2024-01-27T05:34:45;8.20;;;3.97;;
38879;SDS011;25887;30.194;-97.880;2024-01-27T05:37:11;10.15;;;3.90;;
38879;SDS011;25887;30.194;-97.880;2024-01-27T05:39:38;8.48;;;3.95;;
38879;SDS011;25887;30.194;-97.880;2024-01-27T05:42:05;9.93;;;4.00;;
38879;SDS011;25887;30.194;-97.880;2024-01-27T05:44:32;14.45;;;4.38;;
38879;SDS011;25887;30.194;-97.880;2024-01-27T05:46:58;7.45;;;3.72;;
38879;SDS011;25887;30.194;-97.880;2024-01-27T05:49:24;9.93;;;3.40;;
38879;SDS011;25887;30.194;-97.880;2024-01-27T05:51:51;6.63;;;3.15;;
38879;SDS011;25887;30.194;-97.880;2024-01-27T05:54:17;9.10;;;3.53;;
38879;SDS011;25887;30.194;-97.880;2024-01-27T05:56:54;6.65;;;2.67;;
38879;SDS011;25887;30.194;-97.880;2024-01-27T05:59:21;8.57;;;3.15;;
38879;SDS011;25887;30.194;-97.880;2024-01-27T06:01:47;12.68;;;4.13;;
38879;SDS011;25887;30.194;-97.880;2024-01-27T06:04:23;7.25;;;3.45;;
38879;SDS011;25887;30.194;-97.880;2024-01-27T06:06:49;5.20;;;2.97;;
38879;SDS011;25887;30.194;-97.880;2024-01-27T06:09:19;8.18;;;3.22;;
38879;SDS011;25887;30.194;-97.880;2024-01-27T06:11:54;8.18;;;3.25;;
38879;SDS011;25887;30.194;-97.880;2024-01-27T06:14:25;7.65;;;3.20;;
38879;SDS011;25887;30.194;-97.880;2024-01-27T06:16:54;7.30;;;3.25;;
38879;SDS011;25887;30.194;-97.880;2024-01-27T06:19:37;9.48;;;3.10;;
38879;SDS011;25887;30.194;-97.880;2024-01-27T06:22:03;7.50;;;3.25;;
38879;SDS011;25887;30.194;-97.880;2024-01-27T06:24:30;8.05;;;3.05;;
38879;SDS011;25887;30.194;-97.880;2024-01-27T06:26:59;5.57;;;2.70;;
38879;SDS011;25887;30.194;-97.880;2024-01-27T06:29:25;6.28;;;2.78;;
38879;SDS011;25887;30.194;-97.880;2024-01-27T06:31:55;7.07;;;2.90;;
38879;SDS011;25887;30.194;-97.880;2024-01-27T06:34:21;8.23;;;2.85;;
38879;SDS011;25887;30.194;-97.880;2024-01-27T06:36:56;7.60;;;2.58;;
38879;SDS011;25887;30.194;-97.880;2024-01-27T06:39:25;7.90;;;2.90;;
38879;SDS011;25887;30.194;-97.880;2024-01-27T06:41:52;5.80;;;2.72;;
38879;SDS011;25887;30.194;-97.880;2024-01-27T06:44:18;6.40;;;2.50;;
38879;SDS011;25887;30.194;-97.880;2024-01-27T06:46:45;5.75;;;2.38;;
38879;SDS011;25887;30.194;-97.880;2024-01-27T06:49:15;6.68;;;2.90;;
38879;SDS011;25887;30.194;-97.880;2024-01-27T06:51:43;6.03;;;2.67;;
38879;SDS011;25887;30.194;-97.880;2024-01-27T06:54:10;6.75;;;2.80;;
38879;SDS011;25887;30.194;-97.880;2024-01-27T06:56:36;7.55;;;3.08;;
38879;SDS011;25887;30.194;-97.880;2024-01-27T06:59:05;6.45;;;2.72;;
38879;SDS011;25887;30.194;-97.880;2024-01-27T07:01:32;7.78;;;3.35;;
38879;SDS011;25887;30.194;-97.880;2024-01-27T07:03:58;6.25;;;2.95;;
38879;SDS011;25887;30.194;-97.880;2024-01-27T07:06:27;4.57;;;2.40;;
38879;SDS011;25887;30.194;-97.880;2024-01-27T07:08:54;9.77;;;3.05;;
38879;SDS011;25887;30.194;-97.880;2024-01-27T07:11:23;5.80;;;2.75;;
38879;SDS011;25887;30.194;-97.880;2024-01-27T07:13:50;7.13;;;2.88;;
38879;SDS011;25887;30.194;-97.880;2024-01-27T07:16:19;5.32;;;2.30;;
38879;SDS011;25887;30.194;-97.880;2024-01-27T07:18:45;6.63;;;2.75;;
38879;SDS011;25887;30.194;-97.880;2024-01-27T07:21:14;7.43;;;2.53;;
38879;SDS011;25887;30.194;-97.880;2024-01-27T07:23:43;5.63;;;2.63;;
38879;SDS011;25887;30.194;-97.880;2024-01-27T07:26:10;7.05;;;2.78;;
38879;SDS011;25887;30.194;-97.880;2024-01-27T07:28:37;6.47;;;3.22;;
38879;SDS011;25887;30.194;-97.880;2024-01-27T07:31:05;6.55;;;2.83;;
38879;SDS011;25887;30.194;-97.880;2024-01-27T07:33:31;5.07;;;2.08;;
38879;SDS011;25887;30.194;-97.880;2024-01-27T07:35:57;6.85;;;2.20;;
38879;SDS011;25887;30.194;-97.880;2024-01-27T07:38:24;7.45;;;2.33;;
38879;SDS011;25887;30.194;-97.880;2024-01-27T07:40:55;4.85;;;2.40;;
38879;SDS011;25887;30.194;-97.880;2024-01-27T07:43:23;6.13;;;2.35;;
38879;SDS011;25887;30.194;-97.880;2024-01-27T07:45:51;5.75;;;2.30;;
38879;SDS011;25887;30.194;-97.880;2024-01-27T07:48:18;6.78;;;2.67;;
38879;SDS011;25887;30.194;-97.880;2024-01-27T07:50:45;5.32;;;2.47;;
38879;SDS011;25887;30.194;-97.880;2024-01-27T07:53:14;5.50;;;2.60;;
38879;SDS011;25887;30.194;-97.880;2024-01-27T07:55:43;6.22;;;2.65;;
38879;SDS011;25887;30.194;-97.880;2024-01-27T07:58:10;9.30;;;2.35;;
38879;SDS011;25887;30.194;-97.880;2024-01-27T08:00:36;8.45;;;2.35;;
38879;SDS011;25887;30.194;-97.880;2024-01-27T08:03:05;3.55;;;1.98;;
38879;SDS011;25887;30.194;-97.880;2024-01-27T08:05:33;5.22;;;2.53;;
38879;SDS011;25887;30.194;-97.880;2024-01-27T08:07:59;4.82;;;2.20;;
38879;SDS011;25887;30.194;-97.880;2024-01-27T08:10:25;4.63;;;1.90;;
38879;SDS011;25887;30.194;-97.880;2024-01-27T08:12:51;5.72;;;2.30;;
38879;SDS011;25887;30.194;-97.880;2024-01-27T08:15:18;8.02;;;2.47;;
38879;SDS011;25887;30.194;-97.880;2024-01-27T08:17:44;6.95;;;2.85;;
38879;SDS011;25887;30.194;-97.880;2024-01-27T08:20:10;5.55;;;2.38;;
38879;SDS011;25887;30.194;-97.880;2024-01-27T08:22:39;5.13;;;2.15;;
38879;SDS011;25887;30.194;-97.880;2024-01-27T08:25:08;5.18;;;2.38;;
38879;SDS011;25887;30.194;-97.880;2024-01-27T08:27:35;4.95;;;2.55;;
38879;SDS011;25887;30.194;-97.880;2024-01-27T08:30:01;4.55;;;2.45;;
38879;SDS011;25887;30.194;-97.880;2024-01-27T08:32:28;8.10;;;3.10;;
38879;SDS011;25887;30.194;-97.880;2024-01-27T08:34:54;5.60;;;2.63;;
38879;SDS011;25887;30.194;-97.880;2024-01-27T08:37:21;5.45;;;2.60;;
38879;SDS011;25887;30.194;-97.880;2024-01-27T08:39:47;6.75;;;2.47;;
38879;SDS011;25887;30.194;-97.880;2024-01-27T08:42:13;5.53;;;2.67;;
38879;SDS011;25887;30.194;-97.880;2024-01-27T08:44:42;5.95;;;2.70;;
38879;SDS011;25887;30.194;-97.880;2024-01-27T08:47:08;6.60;;;3.22;;
38879;SDS011;25887;30.194;-97.880;2024-01-27T08:49:35;6.35;;;2.90;;
38879;SDS011;25887;30.194;-97.880;2024-01-27T08:52:01;7.15;;;2.65;;
38879;SDS011;25887;30.194;-97.880;2024-01-27T08:54:28;5.65;;;2.83;;
38879;SDS011;25887;30.194;-97.880;2024-01-27T08:56:54;8.70;;;3.25;;
38879;SDS011;25887;30.194;-97.880;2024-01-27T08:59:20;10.40;;;3.53;;
38879;SDS011;25887;30.194;-97.880;2024-01-27T09:01:47;7.53;;;3.20;;
38879;SDS011;25887;30.194;-97.880;2024-01-27T09:04:13;8.27;;;2.92;;
38879;SDS011;25887;30.194;-97.880;2024-01-27T09:06:39;6.68;;;3.78;;
38879;SDS011;25887;30.194;-97.880;2024-01-27T09:09:06;7.78;;;3.22;;
38879;SDS011;25887;30.194;-97.880;2024-01-27T09:11:33;7.72;;;3.22;;
38879;SDS011;25887;30.194;-97.880;2024-01-27T09:14:00;10.10;;;3.35;;
38879;SDS011;25887;30.194;-97.880;2024-01-27T09:16:26;11.00;;;3.65;;
38879;SDS011;25887;30.194;-97.880;2024-01-27T09:18:52;6.45;;;3.40;;
38879;SDS011;25887;30.194;-97.880;2024-01-27T09:21:19;8.43;;;3.22;;
38879;SDS011;25887;30.194;-97.880;2024-01-27T09:23:47;10.25;;;3.70;;
38879;SDS011;25887;30.194;-97.880;2024-01-27T09:26:14;8.95;;;3.25;;
38879;SDS011;25887;30.194;-97.880;2024-01-27T09:28:43;7.72;;;2.97;;
38879;SDS011;25887;30.194;-97.880;2024-01-27T09:31:11;8.00;;;3.45;;
38879;SDS011;25887;30.194;-97.880;2024-01-27T09:33:38;7.88;;;2.90;;
38879;SDS011;25887;30.194;-97.880;2024-01-27T09:36:04;4.53;;;2.08;;
38879;SDS011;25887;30.194;-97.880;2024-01-27T09:38:33;7.88;;;2.83;;
38879;SDS011;25887;30.194;-97.880;2024-01-27T09:40:59;7.63;;;2.65;;
38879;SDS011;25887;30.194;-97.880;2024-01-27T09:43:26;4.35;;;2.30;;
38879;SDS011;25887;30.194;-97.880;2024-01-27T09:45:54;6.40;;;2.13;;
38879;SDS011;25887;30.194;-97.880;2024-01-27T09:48:23;6.13;;;2.47;;
38879;SDS011;25887;30.194;-97.880;2024-01-27T09:50:50;4.35;;;2.53;;
38879;SDS011;25887;30.194;-97.880;2024-01-27T09:53:18;3.92;;;1.98;;
38879;SDS011;25887;30.194;-97.880;2024-01-27T09:55:44;4.57;;;1.80;;
38879;SDS011;25887;30.194;-97.880;2024-01-27T09:58:10;1.77;;;1.35;;
38879;SDS011;25887;30.194;-97.880;2024-01-27T10:00:37;2.50;;;1.75;;
38879;SDS011;25887;30.194;-97.880;2024-01-27T10:03:07;3.63;;;1.83;;
38879;SDS011;25887;30.194;-97.880;2024-01-27T10:05:34;4.07;;;1.55;;
38879;SDS011;25887;30.194;-97.880;2024-01-27T10:08:02;2.55;;;1.42;;
38879;SDS011;25887;30.194;-97.880;2024-01-27T10:10:34;3.78;;;1.60;;
38879;SDS011;25887;30.194;-97.880;2024-01-27T10:13:00;3.50;;;1.75;;
38879;SDS011;25887;30.194;-97.880;2024-01-27T10:15:29;1.83;;;1.30;;
38879;SDS011;25887;30.194;-97.880;2024-01-27T10:18:05;2.28;;;1.48;;
38879;SDS011;25887;30.194;-97.880;2024-01-27T10:20:32;3.20;;;1.75;;
38879;SDS011;25887;30.194;-97.880;2024-01-27T10:22:59;3.22;;;1.55;;
38879;SDS011;25887;30.194;-97.880;2024-01-27T10:25:39;2.35;;;1.58;;
38879;SDS011;25887;30.194;-97.880;2024-01-27T10:28:07;1.90;;;1.42;;
38879;SDS011;25887;30.194;-97.880;2024-01-27T10:30:37;2.13;;;1.40;;
38879;SDS011;25887;30.194;-97.880;2024-01-27T10:33:03;2.70;;;1.90;;
38879;SDS011;25887;30.194;-97.880;2024-01-27T10:35:30;3.20;;;1.60;;
38879;SDS011;25887;30.194;-97.880;2024-01-27T10:37:56;2.40;;;1.52;;
38879;SDS011;25887;30.194;-97.880;2024-01-27T10:40:23;7.72;;;1.42;;
38879;SDS011;25887;30.194;-97.880;2024-01-27T10:42:55;3.75;;;1.20;;
38879;SDS011;25887;30.194;-97.880;2024-01-27T10:45:39;1.90;;;1.20;;
38879;SDS011;25887;30.194;-97.880;2024-01-27T10:48:07;3.38;;;1.50;;
38879;SDS011;25887;30.194;-97.880;2024-01-27T10:50:54;1.67;;;1.27;;
38879;SDS011;25887;30.194;-97.880;2024-01-27T10:53:23;1.48;;;0.98;;
38879;SDS011;25887;30.194;-97.880;2024-01-27T10:55:52;2.00;;;1.17;;
38879;SDS011;25887;30.194;-97.880;2024-01-27T10:58:22;1.20;;;1.05;;
38879;SDS011;25887;30.194;-97.880;2024-01-27T11:00:52;1.65;;;1.02;;
38879;SDS011;25887;30.194;-97.880;2024-01-27T11:03:19;1.45;;;0.95;;
38879;SDS011;25887;30.194;-97.880;2024-01-27T11:05:54;1.70;;;1.20;;
38879;SDS011;25887;30.194;-97.880;2024-01-27T11:08:22;1.80;;;1.17;;
38879;SDS011;25887;30.194;-97.880;2024-01-27T11:10:53;1.83;;;1.00;;
38879;SDS011;25887;30.194;-97.880;2024-01-27T11:13:20;1.60;;;1.17;;
38879;SDS011;25887;30.194;-97.880;2024-01-27T11:15:52;3.03;;;1.10;;
38879;SDS011;25887;30.194;-97.880;2024-01-27T11:18:19;1.55;;;1.20;;
38879;SDS011;25887;30.194;-97.880;2024-01-27T11:20:46;2.05;;;1.20;;
38879;SDS011;25887;30.194;-97.880;2024-01-27T11:23:13;2.10;;;1.20;;
38879;SDS011;25887;30.194;-97.880;2024-01-27T11:25:39;4.50;;;1.27;;
38879;SDS011;25887;30.194;-97.880;2024-01-27T11:28:13;1.92;;;1.23;;
38879;SDS011;25887;30.194;-97.880;2024-01-27T11:30:46;2.28;;;0.95;;
38879;SDS011;25887;30.194;-97.880;2024-01-27T11:33:13;3.42;;;1.15;;
38879;SDS011;25887;30.194;-97.880;2024-01-27T11:35:40;1.15;;;1.02;;
38879;SDS011;25887;30.194;-97.880;2024-01-27T11:38:07;2.50;;;1.33;;
38879;SDS011;25887;30.194;-97.880;2024-01-27T11:40:46;3.10;;;1.33;;
38879;SDS011;25887;30.194;-97.880;2024-01-27T11:43:13;1.60;;;0.95;;
38879;SDS011;25887;30.194;-97.880;2024-01-27T11:45:39;2.75;;;0.88;;
38879;SDS011;25887;30.194;-97.880;2024-01-27T11:48:06;1.90;;;1.23;;
38879;SDS011;25887;30.194;-97.880;2024-01-27T11:50:32;1.20;;;0.85;;
38879;SDS011;25887;30.194;-97.880;2024-01-27T11:52:58;2.25;;;1.08;;
38879;SDS011;25887;30.194;-97.880;2024-01-27T11:55:25;1.95;;;1.15;;
38879;SDS011;25887;30.194;-97.880;2024-01-27T11:57:51;2.22;;;1.23;;
38879;SDS011;25887;30.194;-97.880;2024-01-27T12:00:17;2.90;;;1.35;;
38879;SDS011;25887;30.194;-97.880;2024-01-27T12:02:43;2.53;;;1.17;;
38879;SDS011;25887;30.194;-97.880;2024-01-27T12:05:10;1.73;;;1.00;;
38879;SDS011;25887;30.194;-97.880;2024-01-27T12:07:37;1.25;;;0.88;;
38879;SDS011;25887;30.194;-97.880;2024-01-27T12:10:04;1.98;;;1.48;;
38879;SDS011;25887;30.194;-97.880;2024-01-27T12:12:31;2.28;;;1.13;;
38879;SDS011;25887;30.194;-97.880;2024-01-27T12:14:57;2.22;;;1.05;;
38879;SDS011;25887;30.194;-97.880;2024-01-27T12:17:27;1.30;;;0.95;;
38879;SDS011;25887;30.194;-97.880;2024-01-27T12:19:54;2.22;;;1.13;;
38879;SDS011;25887;30.194;-97.880;2024-01-27T12:24:52;1.38;;;0.98;;
38879;SDS011;25887;30.194;-97.880;2024-01-27T12:27:22;2.67;;;1.10;;
38879;SDS011;25887;30.194;-97.880;2024-01-27T12:29:49;2.50;;;1.05;;
38879;SDS011;25887;30.194;-97.880;2024-01-27T12:32:15;3.45;;;1.30;;
38879;SDS011;25887;30.194;-97.880;2024-01-27T12:34:43;1.65;;;1.00;;
38879;SDS011;25887;30.194;-97.880;2024-01-27T12:37:11;2.17;;;1.05;;
38879;SDS011;25887;30.194;-97.880;2024-01-27T12:39:44;1.70;;;1.17;;
38879;SDS011;25887;30.194;-97.880;2024-01-27T12:42:11;1.55;;;1.17;;
38879;SDS011;25887;30.194;-97.880;2024-01-27T12:44:38;1.85;;;0.95;;
38879;SDS011;25887;30.194;-97.880;2024-01-27T12:47:07;2.60;;;0.93;;
38879;SDS011;25887;30.194;-97.880;2024-01-27T12:49:35;2.20;;;0.93;;
38879;SDS011;25887;30.194;-97.880;2024-01-27T12:52:02;1.35;;;1.02;;
38879;SDS011;25887;30.194;-97.880;2024-01-27T12:54:28;2.22;;;1.23;;
38879;SDS011;25887;30.194;-97.880;2024-01-27T12:56:55;2.30;;;1.02;;
38879;SDS011;25887;30.194;-97.880;2024-01-27T12:59:26;2.03;;;1.20;;
38879;SDS011;25887;30.194;-97.880;2024-01-27T13:01:55;1.73;;;1.10;;
38879;SDS011;25887;30.194;-97.880;2024-01-27T13:04:24;3.10;;;1.05;;
38879;SDS011;25887;30.194;-97.880;2024-01-27T13:06:53;1.40;;;1.23;;
38879;SDS011;25887;30.194;-97.880;2024-01-27T13:09:22;3.17;;;1.00;;
38879;SDS011;25887;30.194;-97.880;2024-01-27T13:11:49;1.95;;;1.00;;
38879;SDS011;25887;30.194;-97.880;2024-01-27T13:14:27;0.85;;;0.65;;
38879;SDS011;25887;30.194;-97.880;2024-01-27T13:17:06;2.53;;;1.15;;
38879;SDS011;25887;30.194;-97.880;2024-01-27T13:19:32;2.42;;;1.13;;
38879;SDS011;25887;30.194;-97.880;2024-01-27T13:21:59;2.97;;;1.40;;
38879;SDS011;25887;30.194;-97.880;2024-01-27T13:24:26;2.97;;;1.50;;
38879;SDS011;25887;30.194;-97.880;2024-01-27T13:26:52;3.85;;;1.60;;
38879;SDS011;25887;30.194;-97.880;2024-01-27T13:29:18;3.35;;;1.27;;
38879;SDS011;25887;30.194;-97.880;2024-01-27T13:31:45;1.40;;;0.88;;
38879;SDS011;25887;30.194;-97.880;2024-01-27T13:34:12;2.05;;;1.30;;
38879;SDS011;25887;30.194;-97.880;2024-01-27T13:36:39;2.42;;;0.95;;
38879;SDS011;25887;30.194;-97.880;2024-01-27T13:39:05;1.63;;;0.98;;
38879;SDS011;25887;30.194;-97.880;2024-01-27T13:41:32;2.90;;;0.88;;
38879;SDS011;25887;30.194;-97.880;2024-01-27T13:43:58;1.90;;;0.95;;
38879;SDS011;25887;30.194;-97.880;2024-01-27T13:46:24;2.22;;;1.10;;
38879;SDS011;25887;30.194;-97.880;2024-01-27T13:48:50;1.50;;;0.90;;
38879;SDS011;25887;30.194;-97.880;2024-01-27T13:51:17;2.53;;;0.90;;
38879;SDS011;25887;30.194;-97.880;2024-01-27T13:53:43;1.45;;;0.90;;
38879;SDS011;25887;30.194;-97.880;2024-01-27T13:56:09;2.17;;;1.33;;
38879;SDS011;25887;30.194;-97.880;2024-01-27T13:58:36;3.47;;;0.77;;
38879;SDS011;25887;30.194;-97.880;2024-01-27T14:01:05;1.27;;;0.65;;
38879;SDS011;25887;30.194;-97.880;2024-01-27T14:03:33;2.45;;;1.02;;
38879;SDS011;25887;30.194;-97.880;2024-01-27T14:06:00;0.90;;;0.50;;
38879;SDS011;25887;30.194;-97.880;2024-01-27T14:08:26;1.23;;;0.88;;
38879;SDS011;25887;30.194;-97.880;2024-01-27T14:10:55;1.17;;;0.55;;
38879;SDS011;25887;30.194;-97.880;2024-01-27T14:13:23;0.82;;;0.63;;
38879;SDS011;25887;30.194;-97.880;2024-01-27T14:15:49;0.47;;;0.47;;
38879;SDS011;25887;30.194;-97.880;2024-01-27T14:18:16;0.88;;;0.60;;
38879;SDS011;25887;30.194;-97.880;2024-01-27T14:20:46;3.50;;;0.52;;
38879;SDS011;25887;30.194;-97.880;2024-01-27T14:23:15;0.40;;;0.40;;